Time;durP1;ratioP1;P1;durP2;ratioP2;P2;SDS_P1;SDS_P2;PMS_P1;PMS_P2;Temp;Humidity;BMP_temperature;BMP_pressure;BME280_temperature;BME280_humidity;BME280_pressure;Samples;Min_cycle;Max_cycle;Signal;HPM_P1;HPM_P2
2023/03/09 00:01:44;;;;;;;10.70;6.13;;;2.90;99.90;;;;;;5008445;28;20827;-70
2023/03/09 00:04:14;;;;;;;14.27;8.63;;;3.00;99.90;;;;;;4999657;28;20516;-70
2023/03/09 00:06:43;;;;;;;20.57;8.67;;;2.90;99.90;;;;;;5012109;28;20552;-70
2023/03/09 00:09:10;;;;;;;13.03;6.80;;;2.90;99.90;;;;;;5006798;28;20938;-70
2023/03/09 00:11:41;;;;;;;7.30;5.10;;;3.00;99.90;;;;;;4995952;28;20488;-70
2023/03/09 00:14:08;;;;;;;15.33;10.77;;;3.10;99.90;;;;;;5005769;28;20486;-70
2023/03/09 00:16:38;;;;;;;7.30;5.67;;;3.00;99.90;;;;;;5005740;28;20494;-70
2023/03/09 00:19:04;;;;;;;17.93;7.93;;;3.00;99.90;;;;;;5008395;28;20936;-70
2023/03/09 00:21:36;;;;;;;10.33;5.90;;;3.00;99.90;;;;;;5005072;28;20483;-70
2023/03/09 00:24:07;;;;;;;14.60;6.97;;;3.20;99.90;;;;;;5013443;28;20458;-70
2023/03/09 00:26:36;;;;;;;15.23;8.77;;;3.10;99.90;;;;;;5001838;28;20525;-70
2023/03/09 00:29:06;;;;;;;19.67;8.63;;;3.20;99.90;;;;;;5002088;28;20484;-70
2023/03/09 00:31:33;;;;;;;14.67;7.50;;;3.10;99.90;;;;;;5006534;28;20456;-70
2023/03/09 00:34:00;;;;;;;15.67;7.43;;;3.00;99.90;;;;;;5003291;28;20947;-70
2023/03/09 00:36:27;;;;;;;10.27;7.60;;;2.90;99.90;;;;;;5001053;28;20463;-70
2023/03/09 00:38:55;;;;;;;14.60;6.90;;;2.90;99.90;;;;;;5010262;28;20463;-70
2023/03/09 00:41:26;;;;;;;16.07;7.13;;;3.10;99.90;;;;;;5011954;28;20615;-70
2023/03/09 00:43:53;;;;;;;18.87;7.70;;;3.10;99.90;;;;;;5014140;28;20416;-70
2023/03/09 00:46:20;;;;;;;13.33;6.77;;;3.10;99.90;;;;;;5015261;28;20560;-70
2023/03/09 00:48:47;;;;;;;11.50;6.53;;;3.00;99.90;;;;;;5012280;28;20496;-70
2023/03/09 00:51:14;;;;;;;9.13;5.77;;;2.90;99.90;;;;;;5004766;28;20847;-70
2023/03/09 00:53:41;;;;;;;16.00;9.27;;;2.90;99.90;;;;;;5009226;28;20503;-70
2023/03/09 00:56:10;;;;;;;11.07;6.87;;;2.90;99.90;;;;;;5003708;28;20982;-70
2023/03/09 00:58:38;;;;;;;10.47;5.77;;;2.80;99.90;;;;;;4998962;28;20721;-70
2023/03/09 01:01:08;;;;;;;12.53;8.30;;;2.70;99.90;;;;;;4994346;28;20458;-70
2023/03/09 01:03:35;;;;;;;14.00;6.77;;;2.70;99.90;;;;;;5004256;28;20461;-70
2023/03/09 01:06:03;;;;;;;14.20;7.70;;;2.60;99.90;;;;;;5011203;28;20579;-69
2023/03/09 01:08:30;;;;;;;10.40;5.03;;;2.60;99.90;;;;;;5000348;28;20458;-70
2023/03/09 01:10:57;;;;;;;11.07;5.93;;;2.60;99.90;;;;;;5009793;28;20886;-70
2023/03/09 01:13:24;;;;;;;9.80;5.73;;;2.80;99.90;;;;;;5005809;28;20446;-70
2023/03/09 01:15:52;;;;;;;9.23;7.40;;;2.70;99.90;;;;;;5009242;28;20523;-69
2023/03/09 01:18:19;;;;;;;14.53;9.47;;;2.60;99.90;;;;;;5001806;28;20568;-69
2023/03/09 01:20:46;;;;;;;7.00;5.00;;;2.60;99.90;;;;;;5002382;28;20524;-69
2023/03/09 01:23:13;;;;;;;9.90;6.53;;;2.70;99.90;;;;;;5004716;28;20428;-69
2023/03/09 01:25:40;;;;;;;12.60;6.50;;;2.80;99.90;;;;;;4999524;28;20682;-70
2023/03/09 01:28:07;;;;;;;10.27;6.70;;;2.90;99.90;;;;;;5007252;28;20483;-70
2023/03/09 01:30:34;;;;;;;13.27;6.53;;;2.80;99.90;;;;;;5006437;28;20456;-69
2023/03/09 01:33:02;;;;;;;10.77;9.53;;;2.70;99.90;;;;;;5008605;28;20532;-70
2023/03/09 01:35:29;;;;;;;9.47;5.77;;;2.80;99.90;;;;;;5006696;28;20443;-70
2023/03/09 01:37:56;;;;;;;15.87;7.90;;;2.90;99.90;;;;;;5008355;28;20571;-70
2023/03/09 01:40:24;;;;;;;9.80;6.00;;;2.90;99.90;;;;;;5025881;28;20462;-69
2023/03/09 01:42:56;;;;;;;11.50;5.57;;;2.90;99.90;;;;;;5020950;28;20816;-69
2023/03/09 01:46:00;;;;;;;11.90;6.47;;;2.90;99.90;;;;;;5000066;28;20430;-69
2023/03/09 01:48:28;;;;;;;10.60;7.23;;;2.90;99.90;;;;;;5011517;28;20420;-69
2023/03/09 01:50:55;;;;;;;13.73;6.30;;;2.80;99.90;;;;;;5009557;28;20453;-69
2023/03/09 01:53:22;;;;;;;13.53;7.47;;;2.90;99.90;;;;;;5016559;28;20911;-69
2023/03/09 01:55:53;;;;;;;14.63;6.80;;;2.80;99.90;;;;;;5014745;28;20897;-69
2023/03/09 01:58:22;;;;;;;8.60;4.63;;;2.80;99.90;;;;;;5007507;28;20500;-69
2023/03/09 02:00:53;;;;;;;12.50;8.07;;;2.70;99.90;;;;;;5005033;28;20603;-70
2023/03/09 02:03:24;;;;;;;10.63;6.50;;;2.80;99.90;;;;;;5008103;28;20533;-70
2023/03/09 02:05:57;;;;;;;18.00;7.80;;;2.90;99.90;;;;;;4995285;28;20453;-70
2023/03/09 02:08:25;;;;;;;16.70;8.63;;;2.90;99.90;;;;;;4994270;28;20445;-70
2023/03/09 02:10:56;;;;;;;11.97;6.43;;;3.00;99.90;;;;;;5000394;28;20558;-70
2023/03/09 02:13:28;;;;;;;13.83;8.70;;;2.90;99.90;;;;;;5016053;28;20449;-70
2023/03/09 02:15:55;;;;;;;18.67;10.63;;;3.00;99.90;;;;;;5003192;28;20529;-70
2023/03/09 02:18:24;;;;;;;19.00;7.70;;;3.00;99.90;;;;;;5012511;28;21003;-70
2023/03/09 02:21:00;;;;;;;16.00;6.43;;;3.00;99.90;;;;;;5012497;28;20434;-70
2023/03/09 02:23:35;;;;;;;27.73;8.10;;;2.90;99.90;;;;;;5001395;28;20416;-70
2023/03/09 02:26:10;;;;;;;11.10;5.33;;;2.90;99.90;;;;;;5009641;28;20594;-69
2023/03/09 02:28:38;;;;;;;13.57;6.87;;;3.00;99.90;;;;;;5011893;28;20427;-70
2023/03/09 02:31:06;;;;;;;18.40;8.00;;;3.00;99.90;;;;;;5006075;28;20535;-70
2023/03/09 02:33:33;;;;;;;11.07;5.60;;;2.90;99.90;;;;;;5012225;28;20514;-70
2023/03/09 02:36:01;;;;;;;15.37;7.37;;;2.90;99.90;;;;;;5007464;28;20462;-70
2023/03/09 02:38:28;;;;;;;13.57;6.53;;;2.80;99.90;;;;;;5010298;28;20981;-72
2023/03/09 02:40:58;;;;;;;14.03;8.53;;;3.00;99.90;;;;;;5009895;28;20462;-69
2023/03/09 02:43:29;;;;;;;14.10;6.87;;;3.10;99.90;;;;;;5013905;28;20519;-69
2023/03/09 02:45:57;;;;;;;18.33;7.87;;;3.10;99.90;;;;;;5010618;28;20941;-70
2023/03/09 02:48:24;;;;;;;12.73;6.07;;;3.20;99.90;;;;;;5005462;28;20840;-69
2023/03/09 02:50:51;;;;;;;8.70;6.97;;;3.20;99.90;;;;;;5008457;28;20489;-70
2023/03/09 02:53:18;;;;;;;12.07;6.30;;;3.20;99.90;;;;;;5013247;28;20464;-70
2023/03/09 02:55:45;;;;;;;15.90;7.97;;;3.10;99.90;;;;;;5015501;28;20464;-70
2023/03/09 02:58:12;;;;;;;12.23;7.33;;;3.10;99.90;;;;;;5016052;28;20430;-70
2023/03/09 03:00:39;;;;;;;17.93;8.03;;;3.10;99.90;;;;;;5012228;28;20541;-70
2023/03/09 03:03:07;;;;;;;12.20;6.67;;;3.30;99.90;;;;;;5006872;28;20775;-70
2023/03/09 03:05:34;;;;;;;14.03;8.90;;;3.20;99.90;;;;;;5002283;28;20847;-70
2023/03/09 03:08:01;;;;;;;15.60;8.57;;;3.20;99.90;;;;;;5012375;28;20491;-70
2023/03/09 03:10:28;;;;;;;14.90;6.23;;;3.10;99.90;;;;;;5001899;28;20524;-70
2023/03/09 03:12:55;;;;;;;19.50;7.73;;;3.00;99.90;;;;;;5009776;28;20454;-70
2023/03/09 03:15:22;;;;;;;23.87;9.63;;;3.10;99.90;;;;;;5007478;28;20469;-70
2023/03/09 03:17:49;;;;;;;20.47;8.87;;;3.10;99.90;;;;;;5012701;28;20456;-70
2023/03/09 03:20:17;;;;;;;9.77;6.27;;;3.30;99.90;;;;;;5010263;28;20453;-70
2023/03/09 03:22:45;;;;;;;17.60;7.30;;;3.30;99.90;;;;;;5011895;28;20428;-71
2023/03/09 03:25:12;;;;;;;13.53;8.13;;;3.30;99.90;;;;;;5011562;28;20621;-70
2023/03/09 03:27:39;;;;;;;14.20;10.50;;;3.30;99.90;;;;;;5012573;28;20552;-70
2023/03/09 03:30:08;;;;;;;21.17;8.00;;;3.20;99.90;;;;;;5003806;28;20588;-70
2023/03/09 03:32:35;;;;;;;18.43;8.30;;;3.20;99.90;;;;;;5008976;28;20483;-70
2023/03/09 03:35:02;;;;;;;14.83;7.80;;;3.30;99.90;;;;;;5015396;28;20552;-69
2023/03/09 03:37:30;;;;;;;16.30;6.37;;;3.40;99.90;;;;;;5010332;28;20468;-70
2023/03/09 03:39:58;;;;;;;16.13;8.80;;;3.30;99.90;;;;;;5010120;28;20442;-70
2023/03/09 03:42:25;;;;;;;11.50;8.23;;;3.30;99.90;;;;;;5010872;28;20435;-70
2023/03/09 03:44:52;;;;;;;15.77;8.90;;;3.20;99.90;;;;;;5007636;28;20563;-70
2023/03/09 03:47:18;;;;;;;16.20;7.70;;;3.10;99.90;;;;;;5012037;28;20454;-70
2023/03/09 03:49:45;;;;;;;16.00;9.00;;;3.10;99.90;;;;;;5014892;28;20420;-70
2023/03/09 03:52:12;;;;;;;18.07;8.10;;;3.10;99.90;;;;;;5002661;28;20563;-70
2023/03/09 03:54:40;;;;;;;28.87;9.63;;;3.10;99.90;;;;;;5012624;28;20900;-69
2023/03/09 03:57:07;;;;;;;13.83;7.17;;;3.10;99.90;;;;;;5003631;28;20495;-69
2023/03/09 03:59:34;;;;;;;12.90;6.33;;;3.10;99.90;;;;;;5007793;28;20515;-69
2023/03/09 04:02:01;;;;;;;12.97;5.50;;;3.10;99.90;;;;;;5004800;28;20435;-69
2023/03/09 04:04:28;;;;;;;13.37;7.03;;;3.20;99.90;;;;;;5011011;28;20451;-69
2023/03/09 04:06:55;;;;;;;14.50;7.30;;;3.10;99.90;;;;;;5010074;28;20472;-69
2023/03/09 04:09:22;;;;;;;13.30;7.23;;;3.10;99.90;;;;;;5014696;28;20471;-69
2023/03/09 04:11:51;;;;;;;22.47;9.63;;;3.10;99.90;;;;;;5013242;28;20457;-69
2023/03/09 04:14:18;;;;;;;21.83;8.83;;;3.20;99.90;;;;;;5024097;28;20449;-70
2023/03/09 04:16:45;;;;;;;17.67;8.80;;;3.30;99.90;;;;;;5001130;28;20569;-70
2023/03/09 04:19:12;;;;;;;22.37;9.13;;;3.30;99.90;;;;;;5006657;28;20802;-69
2023/03/09 04:21:39;;;;;;;14.07;8.87;;;3.30;99.90;;;;;;5007050;28;20400;-69
2023/03/09 04:24:06;;;;;;;18.30;9.60;;;3.20;99.90;;;;;;5005206;28;20439;-69
2023/03/09 04:26:33;;;;;;;13.33;6.07;;;3.30;99.90;;;;;;5008236;28;20539;-70
2023/03/09 04:29:01;;;;;;;23.97;7.80;;;3.40;99.90;;;;;;5002159;28;20470;-69
2023/03/09 04:31:28;;;;;;;26.27;9.37;;;3.50;99.90;;;;;;5014579;28;20515;-70
2023/03/09 04:33:55;;;;;;;16.97;6.13;;;3.60;99.90;;;;;;5006454;28;20457;-69
2023/03/09 04:36:22;;;;;;;15.57;6.20;;;3.40;99.90;;;;;;5014910;28;20809;-70
2023/03/09 04:38:49;;;;;;;17.53;8.50;;;3.20;99.90;;;;;;5010311;28;20446;-70
2023/03/09 04:41:16;;;;;;;14.73;7.70;;;3.20;99.90;;;;;;5008871;28;20432;-71
2023/03/09 04:43:42;;;;;;;17.40;7.87;;;3.30;99.90;;;;;;5006516;28;20503;-69
2023/03/09 04:46:12;;;;;;;23.60;8.63;;;3.30;99.90;;;;;;5003446;28;20482;-70
2023/03/09 04:48:39;;;;;;;16.67;8.67;;;3.40;99.90;;;;;;4995359;28;20489;-69
2023/03/09 04:51:06;;;;;;;16.90;8.20;;;3.50;99.90;;;;;;5002916;28;21048;-69
2023/03/09 04:53:33;;;;;;;23.13;9.33;;;3.50;99.90;;;;;;5002641;28;20499;-70
2023/03/09 04:56:00;;;;;;;18.37;7.17;;;3.50;99.90;;;;;;5009999;28;20477;-70
2023/03/09 04:58:26;;;;;;;19.27;10.57;;;3.60;99.90;;;;;;5013354;28;20507;-69
2023/03/09 05:00:53;;;;;;;18.80;7.23;;;3.60;99.90;;;;;;5002641;28;20457;-72
2023/03/09 05:03:22;;;;;;;19.70;10.60;;;3.50;99.90;;;;;;5008960;28;20442;-69
2023/03/09 05:05:49;;;;;;;20.37;8.93;;;3.50;99.90;;;;;;5021898;28;20457;-69
2023/03/09 05:08:16;;;;;;;24.27;9.93;;;3.40;99.90;;;;;;5009081;28;20500;-70
2023/03/09 05:10:43;;;;;;;18.90;7.70;;;3.40;99.90;;;;;;5006784;28;20520;-70
2023/03/09 05:13:10;;;;;;;19.17;7.70;;;3.20;99.90;;;;;;5009741;28;20536;-70
2023/03/09 05:15:39;;;;;;;15.60;7.07;;;3.10;99.90;;;;;;5008668;28;20812;-70
2023/03/09 05:18:06;;;;;;;14.77;6.87;;;3.10;99.90;;;;;;5009369;28;20449;-70
2023/03/09 05:20:37;;;;;;;19.13;8.90;;;3.20;99.90;;;;;;5005742;28;20447;-70
2023/03/09 05:23:04;;;;;;;24.93;11.23;;;3.30;99.90;;;;;;5005977;28;20433;-70
2023/03/09 05:25:32;;;;;;;25.03;12.37;;;3.30;99.90;;;;;;5003894;28;20658;-70
2023/03/09 05:27:59;;;;;;;17.80;7.87;;;3.30;99.90;;;;;;5011882;28;20532;-70
2023/03/09 05:30:26;;;;;;;18.93;8.67;;;3.30;99.90;;;;;;5004593;28;20455;-70
2023/03/09 05:32:53;;;;;;;18.90;8.20;;;3.30;99.90;;;;;;5005704;28;20814;-70
2023/03/09 05:35:20;;;;;;;9.83;6.17;;;3.20;99.90;;;;;;4999754;28;20469;-70
2023/03/09 05:37:49;;;;;;;20.27;9.33;;;3.30;99.90;;;;;;5007050;28;20478;-70
2023/03/09 05:40:17;;;;;;;19.53;8.90;;;3.40;99.90;;;;;;5008717;28;20439;-69
2023/03/09 05:42:44;;;;;;;20.87;8.43;;;3.30;99.90;;;;;;5007894;28;20439;-70
2023/03/09 05:45:11;;;;;;;15.23;7.03;;;3.30;99.90;;;;;;5003463;28;20444;-70
2023/03/09 05:47:40;;;;;;;20.23;9.20;;;3.40;99.90;;;;;;5008297;28;20455;-70
2023/03/09 05:50:09;;;;;;;16.93;7.63;;;3.50;99.90;;;;;;5025726;28;20443;-70
2023/03/09 05:52:36;;;;;;;16.53;7.50;;;3.40;99.90;;;;;;5024694;28;20458;-70
2023/03/09 05:55:05;;;;;;;21.83;8.83;;;3.20;99.90;;;;;;5011607;28;21179;-70
2023/03/09 05:57:32;;;;;;;28.37;13.33;;;3.30;99.90;;;;;;5011267;28;20485;-70
2023/03/09 05:59:58;;;;;;;24.17;9.53;;;3.20;99.90;;;;;;5009773;28;20871;-70
2023/03/09 06:02:25;;;;;;;19.27;9.97;;;3.20;99.90;;;;;;5007423;28;20456;-70
2023/03/09 06:04:53;;;;;;;16.13;8.00;;;3.10;99.90;;;;;;5012252;28;20420;-70
2023/03/09 06:07:23;;;;;;;18.70;8.60;;;3.30;99.90;;;;;;5012934;28;20462;-69
2023/03/09 06:09:49;;;;;;;24.70;9.17;;;3.40;99.90;;;;;;5009398;28;20437;-71
2023/03/09 06:12:18;;;;;;;15.53;8.73;;;3.50;99.90;;;;;;5014179;28;20905;-70
2023/03/09 06:14:47;;;;;;;17.33;12.37;;;3.40;99.90;;;;;;5009381;28;20468;-70
2023/03/09 06:17:14;;;;;;;15.40;9.00;;;3.40;99.90;;;;;;5013350;28;20571;-70
2023/03/09 06:19:41;;;;;;;21.30;9.43;;;3.40;99.90;;;;;;5002188;28;20458;-71
2023/03/09 06:22:08;;;;;;;25.17;9.67;;;3.50;99.90;;;;;;5004715;28;20464;-72
2023/03/09 06:24:35;;;;;;;22.40;9.70;;;3.60;99.90;;;;;;5012387;28;20504;-70
2023/03/09 06:27:03;;;;;;;30.00;11.03;;;3.60;99.90;;;;;;5017790;28;20544;-71
2023/03/09 06:29:33;;;;;;;17.70;9.07;;;3.60;99.90;;;;;;5010652;28;20819;-71
2023/03/09 06:32:00;;;;;;;11.53;8.80;;;3.70;99.90;;;;;;5009023;28;20939;-70
2023/03/09 06:34:29;;;;;;;19.73;9.63;;;3.70;99.90;;;;;;5010360;28;20439;-71
2023/03/09 06:36:56;;;;;;;19.07;9.03;;;3.70;99.90;;;;;;5003779;28;20549;-71
2023/03/09 06:39:23;;;;;;;18.97;9.37;;;3.60;99.90;;;;;;5009111;28;20427;-71
2023/03/09 06:41:50;;;;;;;17.33;9.97;;;3.60;99.90;;;;;;5027910;28;20470;-71
2023/03/09 06:44:17;;;;;;;23.63;11.17;;;3.70;99.90;;;;;;5013433;28;20452;-71
2023/03/09 06:46:45;;;;;;;19.60;8.03;;;3.60;99.90;;;;;;5014808;28;20449;-70
2023/03/09 06:49:12;;;;;;;20.97;10.13;;;3.60;99.90;;;;;;5021991;28;20449;-71
2023/03/09 06:51:39;;;;;;;20.57;9.00;;;3.60;99.90;;;;;;5012011;28;21000;-71
2023/03/09 06:54:07;;;;;;;18.50;10.07;;;3.50;99.90;;;;;;5013562;28;20802;-71
2023/03/09 06:56:34;;;;;;;20.10;9.37;;;3.50;99.90;;;;;;5004132;28;20929;-71
2023/03/09 06:59:08;;;;;;;23.80;10.43;;;3.70;99.90;;;;;;5001916;28;20456;-71
2023/03/09 07:01:35;;;;;;;19.30;8.83;;;3.80;99.90;;;;;;5006952;28;20415;-71
2023/03/09 07:04:04;;;;;;;21.73;8.60;;;3.90;99.90;;;;;;5006934;28;20520;-71
2023/03/09 07:06:30;;;;;;;12.40;6.27;;;3.80;99.90;;;;;;5004823;28;20456;-71
2023/03/09 07:08:57;;;;;;;10.30;6.67;;;3.80;99.90;;;;;;5005450;28;20781;-72
2023/03/09 07:11:24;;;;;;;23.13;9.47;;;3.60;99.90;;;;;;5011249;28;20540;-71
2023/03/09 07:13:51;;;;;;;20.77;8.27;;;3.60;99.90;;;;;;4997749;28;20425;-71
2023/03/09 07:16:18;;;;;;;20.40;8.60;;;3.60;99.90;;;;;;4997293;28;20572;-71
2023/03/09 07:18:45;;;;;;;8.60;5.53;;;3.70;99.90;;;;;;5005708;28;20605;-71
2023/03/09 07:21:13;;;;;;;23.43;11.70;;;3.80;99.90;;;;;;5011879;28;20460;-71
2023/03/09 07:23:40;;;;;;;18.30;8.80;;;3.70;99.90;;;;;;5010551;28;20420;-71
2023/03/09 07:26:07;;;;;;;19.60;8.20;;;3.70;99.90;;;;;;4996735;28;20503;-71
2023/03/09 07:28:35;;;;;;;17.40;7.90;;;3.70;99.90;;;;;;5010020;28;20424;-71
2023/03/09 07:31:07;;;;;;;23.57;11.17;;;3.80;99.90;;;;;;5000923;28;20516;-72
2023/03/09 07:33:34;;;;;;;21.40;9.60;;;3.80;99.90;;;;;;4999866;28;20858;-71
2023/03/09 07:36:03;;;;;;;18.50;7.90;;;3.90;99.90;;;;;;5002563;28;20505;-71
2023/03/09 07:38:34;;;;;;;20.17;10.30;;;3.90;99.90;;;;;;5013306;28;20513;-71
2023/03/09 07:41:02;;;;;;;28.00;9.70;;;3.90;99.90;;;;;;5006976;28;20413;-71
2023/03/09 07:43:32;;;;;;;18.53;9.23;;;3.90;99.90;;;;;;5020227;28;20969;-71
2023/03/09 07:45:58;;;;;;;17.37;9.97;;;4.10;99.90;;;;;;5007055;28;20540;-71
2023/03/09 07:48:25;;;;;;;15.73;8.23;;;4.00;99.90;;;;;;5013565;28;20547;-69
2023/03/09 07:50:59;;;;;;;19.27;9.23;;;4.10;99.90;;;;;;5003870;28;20457;-70
2023/03/09 07:53:26;;;;;;;19.80;10.33;;;4.10;99.90;;;;;;4997303;28;20481;-69
2023/03/09 07:55:56;;;;;;;23.60;10.90;;;4.20;99.90;;;;;;5003175;28;20885;-71
2023/03/09 07:58:23;;;;;;;31.90;11.97;;;4.10;99.90;;;;;;4998034;28;20866;-69
2023/03/09 08:00:50;;;;;;;21.93;9.43;;;4.00;99.90;;;;;;5004230;28;20451;-69
2023/03/09 08:03:17;;;;;;;25.40;6.67;;;4.00;99.90;;;;;;5009869;28;20424;-70
2023/03/09 08:05:44;;;;;;;14.83;8.43;;;4.10;99.90;;;;;;4996692;28;20520;-69
2023/03/09 08:08:12;;;;;;;22.57;8.97;;;4.20;99.90;;;;;;5007854;28;20536;-70
2023/03/09 08:10:39;;;;;;;20.63;7.87;;;4.10;99.90;;;;;;5010854;28;20431;-70
2023/03/09 08:13:11;;;;;;;18.43;7.07;;;4.20;99.90;;;;;;5007806;28;20478;-70
2023/03/09 08:15:38;;;;;;;18.47;11.27;;;4.20;99.90;;;;;;4998759;28;20443;-70
2023/03/09 08:18:05;;;;;;;22.03;11.13;;;4.10;99.90;;;;;;5003076;28;20547;-70
2023/03/09 08:20:32;;;;;;;19.90;10.50;;;4.20;99.90;;;;;;5004619;28;20454;-72
2023/03/09 08:22:59;;;;;;;20.00;9.37;;;4.20;99.90;;;;;;4998775;28;20807;-72
2023/03/09 08:25:26;;;;;;;18.40;7.37;;;4.30;99.90;;;;;;5011309;28;20515;-72
2023/03/09 08:27:54;;;;;;;26.77;11.53;;;4.20;99.90;;;;;;5003336;28;20480;-72
2023/03/09 08:30:23;;;;;;;26.03;9.90;;;4.20;99.90;;;;;;5008319;28;20473;-69
2023/03/09 08:32:51;;;;;;;24.27;7.30;;;4.40;99.90;;;;;;5004302;28;20456;-69
2023/03/09 08:35:19;;;;;;;30.97;11.47;;;4.50;99.90;;;;;;5000142;28;20548;-70
2023/03/09 08:37:47;;;;;;;16.10;7.20;;;4.40;99.90;;;;;;5009157;28;20468;-70
2023/03/09 08:40:15;;;;;;;23.20;9.27;;;4.50;99.90;;;;;;5007908;28;20447;-70
2023/03/09 08:42:43;;;;;;;26.43;11.50;;;4.50;99.90;;;;;;5004926;28;20456;-70
2023/03/09 08:45:11;;;;;;;29.27;10.70;;;4.50;99.90;;;;;;5012636;28;20552;-70
2023/03/09 08:47:39;;;;;;;31.77;10.17;;;4.50;99.90;;;;;;5010596;28;20487;-70
2023/03/09 08:50:07;;;;;;;20.63;10.33;;;4.50;99.90;;;;;;5006962;28;20956;-70
2023/03/09 08:52:37;;;;;;;34.87;10.10;;;4.50;99.90;;;;;;5005063;28;21025;-70
2023/03/09 08:55:06;;;;;;;23.30;10.77;;;4.60;99.90;;;;;;5002815;28;20444;-71
2023/03/09 08:57:33;;;;;;;22.23;10.40;;;4.40;99.90;;;;;;4999449;28;20531;-70
2023/03/09 09:00:01;;;;;;;16.17;8.80;;;4.30;99.90;;;;;;5008957;28;20488;-70
2023/03/09 09:02:28;;;;;;;22.47;10.10;;;4.30;99.90;;;;;;5005320;28;20425;-70
2023/03/09 09:04:56;;;;;;;24.27;8.60;;;4.40;99.90;;;;;;5013294;28;20462;-70
2023/03/09 09:07:24;;;;;;;17.97;7.90;;;4.60;99.90;;;;;;5014259;28;20493;-72
2023/03/09 09:09:50;;;;;;;23.77;10.50;;;4.60;99.90;;;;;;5007989;28;20993;-72
2023/03/09 09:12:17;;;;;;;18.30;10.07;;;4.60;99.90;;;;;;5007124;28;20433;-71
2023/03/09 09:14:44;;;;;;;21.47;8.37;;;4.60;99.90;;;;;;5008412;28;20974;-71
2023/03/09 09:17:11;;;;;;;20.80;9.80;;;4.60;99.90;;;;;;5001468;28;20499;-73
2023/03/09 09:19:39;;;;;;;21.07;10.43;;;4.70;99.90;;;;;;5019701;28;20519;-73
2023/03/09 09:22:09;;;;;;;22.93;11.50;;;4.80;99.90;;;;;;5007565;28;20507;-72
2023/03/09 09:24:37;;;;;;;42.70;11.70;;;5.00;99.90;;;;;;5003912;28;20420;-72
2023/03/09 09:27:05;;;;;;;39.10;12.40;;;5.40;99.90;;;;;;5007388;28;20481;-73
2023/03/09 09:29:32;;;;;;;46.03;12.67;;;5.60;99.90;;;;;;4998411;28;20870;-72
2023/03/09 09:32:01;;;;;;;18.73;8.07;;;5.70;99.90;;;;;;5000663;28;20915;-73
2023/03/09 09:34:30;;;;;;;25.20;9.90;;;5.80;99.90;;;;;;5018637;28;20481;-72
2023/03/09 09:36:57;;;;;;;28.13;14.67;;;5.60;99.90;;;;;;5005921;28;20835;-72
2023/03/09 09:39:26;;;;;;;24.53;11.07;;;5.30;99.90;;;;;;5008793;28;20958;-73
2023/03/09 09:41:56;;;;;;;22.73;9.17;;;5.30;99.90;;;;;;4997013;28;20527;-73
2023/03/09 09:44:27;;;;;;;19.70;9.30;;;5.50;99.90;;;;;;5002007;28;20457;-73
2023/03/09 09:46:59;;;;;;;25.33;10.13;;;5.40;99.90;;;;;;5008523;28;20475;-72
2023/03/09 09:49:32;;;;;;;20.17;11.00;;;5.50;99.90;;;;;;5008194;28;20558;-73
2023/03/09 09:52:21;;;;;;;26.10;10.60;;;5.70;99.90;;;;;;5007516;28;20424;-72
2023/03/09 09:55:09;;;;;;;20.37;11.47;;;5.90;99.90;;;;;;5005842;28;20457;-72
2023/03/09 09:57:40;;;;;;;26.00;15.47;;;5.80;99.90;;;;;;5005470;28;20511;-72
2023/03/09 10:00:13;;;;;;;23.87;9.27;;;5.80;99.90;;;;;;5000469;28;20462;-72
2023/03/09 10:03:05;;;;;;;27.03;12.13;;;6.10;99.90;;;;;;5003348;28;20428;-72
2023/03/09 10:05:39;;;;;;;23.43;10.17;;;5.90;99.90;;;;;;5005679;28;20450;-72
2023/03/09 10:08:20;;;;;;;17.63;9.80;;;5.70;99.90;;;;;;5000534;28;20484;-73
2023/03/09 10:10:49;;;;;;;27.10;12.17;;;5.40;99.90;;;;;;5007539;28;20468;-73
2023/03/09 10:13:24;;;;;;;26.87;10.70;;;5.40;99.90;;;;;;5006370;28;20551;-71
2023/03/09 10:15:52;;;;;;;18.40;7.60;;;5.50;99.90;;;;;;5004187;28;20489;-73
2023/03/09 10:18:24;;;;;;;23.93;8.77;;;5.60;99.90;;;;;;5005588;28;20895;-72
2023/03/09 10:20:54;;;;;;;21.17;10.87;;;5.80;99.90;;;;;;5002532;28;20527;-73
2023/03/09 10:23:25;;;;;;;42.87;13.43;;;5.80;99.90;;;;;;5010352;28;20531;-73
2023/03/09 10:25:57;;;;;;;20.67;11.53;;;5.90;99.90;;;;;;5009590;28;20466;-73
2023/03/09 10:28:28;;;;;;;27.80;11.73;;;6.00;99.90;;;;;;5007781;28;20540;-72
2023/03/09 10:30:58;;;;;;;34.30;10.07;;;5.90;99.90;;;;;;5006679;28;20983;-72
2023/03/09 10:33:38;;;;;;;32.70;13.47;;;6.10;99.90;;;;;;5016707;28;20923;-71
2023/03/09 10:36:10;;;;;;;20.67;10.47;;;6.20;99.90;;;;;;5009656;28;23083;-73
2023/03/09 10:38:39;;;;;;;21.00;9.73;;;6.30;99.90;;;;;;5005039;28;20460;-73
2023/03/09 10:41:17;;;;;;;22.70;12.03;;;6.50;99.90;;;;;;5011059;28;20982;-72
2023/03/09 10:43:45;;;;;;;22.63;9.43;;;6.40;99.90;;;;;;5004946;28;20420;-72
2023/03/09 10:46:15;;;;;;;25.90;9.50;;;6.40;99.90;;;;;;5014664;28;20826;-72
2023/03/09 10:48:43;;;;;;;21.53;10.47;;;6.40;99.90;;;;;;5007345;28;20480;-72
2023/03/09 10:51:27;;;;;;;22.87;12.17;;;6.30;99.90;;;;;;5008796;28;20471;-72
2023/03/09 10:53:56;;;;;;;23.03;10.97;;;6.20;99.90;;;;;;5007288;28;20511;-71
2023/03/09 10:56:26;;;;;;;21.93;10.30;;;6.10;99.90;;;;;;5010805;28;20881;-71
2023/03/09 10:59:18;;;;;;;25.67;10.20;;;6.20;99.90;;;;;;5014404;28;20459;-72
2023/03/09 11:01:47;;;;;;;26.93;10.20;;;6.20;99.90;;;;;;4995392;28;20512;-72
2023/03/09 11:04:34;;;;;;;22.17;8.90;;;6.10;99.90;;;;;;5010994;28;20436;-71
2023/03/09 11:07:03;;;;;;;21.63;9.17;;;6.10;99.90;;;;;;5001889;28;20449;-72
2023/03/09 11:09:33;;;;;;;39.37;11.63;;;5.90;99.90;;;;;;5006991;28;20924;-72
2023/03/09 11:12:22;;;;;;;28.60;12.67;;;5.90;99.90;;;;;;4999156;28;20463;-72
2023/03/09 11:14:51;;;;;;;30.17;12.10;;;5.90;99.90;;;;;;5014284;28;20883;-71
2023/03/09 11:17:35;;;;;;;26.57;11.70;;;6.00;99.90;;;;;;5008031;28;20540;-72
2023/03/09 11:20:24;;;;;;;22.73;8.83;;;6.10;99.90;;;;;;5008748;28;20501;-72
2023/03/09 11:22:57;;;;;;;24.40;11.53;;;6.30;99.90;;;;;;5007731;28;20466;-71
2023/03/09 11:25:35;;;;;;;34.07;10.50;;;6.10;99.90;;;;;;5009132;28;20501;-72
2023/03/09 11:28:12;;;;;;;27.23;11.97;;;6.00;99.90;;;;;;4963984;28;20502;-72
2023/03/09 11:30:40;;;;;;;27.57;13.57;;;6.00;99.90;;;;;;5009986;28;20489;-71
2023/03/09 11:33:11;;;;;;;27.23;11.37;;;6.10;99.90;;;;;;5000944;28;20497;-71
2023/03/09 11:35:38;;;;;;;27.57;12.27;;;6.20;99.90;;;;;;5007700;28;20450;-71
2023/03/09 11:38:11;;;;;;;29.73;13.03;;;6.30;99.90;;;;;;5011441;28;20657;-72
2023/03/09 11:40:41;;;;;;;23.20;10.50;;;6.30;99.90;;;;;;5025033;28;20420;-73
2023/03/09 11:43:18;;;;;;;30.40;12.80;;;6.30;99.90;;;;;;5009283;28;20432;-71
2023/03/09 11:45:45;;;;;;;27.57;13.20;;;6.40;99.90;;;;;;5007345;28;20468;-72
2023/03/09 11:48:20;;;;;;;20.30;10.00;;;6.50;99.90;;;;;;5002245;28;20495;-72
2023/03/09 11:51:01;;;;;;;24.33;12.23;;;6.50;99.90;;;;;;5004177;28;20520;-72
2023/03/09 11:53:32;;;;;;;23.93;9.90;;;6.30;99.90;;;;;;5011063;28;20925;-72
2023/03/09 11:56:14;;;;;;;18.57;10.17;;;6.30;99.90;;;;;;5009474;28;20515;-72
2023/03/09 11:58:46;;;;;;;18.97;11.27;;;6.30;99.90;;;;;;5004480;28;20593;-71
2023/03/09 12:01:22;;;;;;;23.17;11.77;;;6.10;99.90;;;;;;5009172;28;20859;-72
2023/03/09 12:03:58;;;;;;;22.20;9.97;;;6.30;99.90;;;;;;5009090;28;20473;-72
2023/03/09 12:06:32;;;;;;;24.87;13.17;;;6.40;99.90;;;;;;5002779;28;20564;-72
2023/03/09 12:09:01;;;;;;;28.10;11.60;;;6.30;99.90;;;;;;5008199;28;20452;-72
2023/03/09 12:11:34;;;;;;;25.00;9.57;;;6.40;99.90;;;;;;5006647;28;20871;-72
2023/03/09 12:14:13;;;;;;;20.03;10.70;;;6.50;99.90;;;;;;5009158;28;20561;-72
2023/03/09 12:16:43;;;;;;;22.27;11.30;;;6.50;99.90;;;;;;5004949;28;20450;-71
2023/03/09 12:19:17;;;;;;;32.60;11.90;;;6.50;99.90;;;;;;5010588;28;20882;-72
2023/03/09 12:21:47;;;;;;;22.43;10.37;;;6.40;99.90;;;;;;5007468;28;20420;-72
2023/03/09 12:24:29;;;;;;;22.77;9.97;;;6.50;99.90;;;;;;5012312;28;20427;-72
2023/03/09 12:26:59;;;;;;;26.00;11.57;;;6.60;99.90;;;;;;5001937;28;20537;-72
2023/03/09 12:29:35;;;;;;;23.03;11.20;;;6.70;99.90;;;;;;5015425;28;20421;-73
2023/03/09 12:32:33;;;;;;;20.27;9.43;;;6.50;99.90;;;;;;5006044;28;20969;-72
2023/03/09 12:35:01;;;;;;;27.70;11.00;;;6.50;99.90;;;;;;5004149;28;20529;-72
2023/03/09 12:37:54;;;;;;;12.37;5.73;;;6.50;99.90;;;;;;5006684;28;20509;-72
2023/03/09 12:40:30;;;;;;;28.20;11.60;;;6.50;99.90;;;;;;5008881;28;20533;-72
2023/03/09 12:43:18;;;;;;;19.43;10.70;;;6.40;99.90;;;;;;5009199;28;20489;-72
2023/03/09 12:45:49;;;;;;;23.93;10.27;;;6.20;99.90;;;;;;5018411;28;20467;-72
2023/03/09 12:48:25;;;;;;;27.73;11.77;;;6.40;99.90;;;;;;5010390;28;20435;-72
2023/03/09 12:51:01;;;;;;;27.40;13.60;;;6.60;99.90;;;;;;5004692;28;20457;-73
2023/03/09 12:53:30;;;;;;;39.43;11.50;;;6.70;99.90;;;;;;5008809;28;20520;-73
2023/03/09 12:55:59;;;;;;;22.57;10.00;;;6.80;99.90;;;;;;5007390;28;20830;-73